Alisal, California
Current Conditions -  °F | °C
As of 7:53 PM on Friday 19 Dec 2014 (Local Time) from KSNS Reporting Station
Overcast Overcast  
Wind Chill: 58°   Ceiling: 3300
Heat Index: 58°   Visibility: 10mi
Dew Point: 52°   Wind: 10mph
Humidity: 81%   Direction: 90°E
Pressure: 30.15"   Gusts: NA
Location:  36.6786°N, 121.613°W
Report Text: KSNS 200353Z AUTO 09009KT 10SM BKN033 OVC047 14/11 A3015 RMK AO2 SLP218 T01440111 TSNO
Loading
Personal Weather Stations






























Interactive Weather Map New forecast layout! Learn more

10-Day Weather Forecast

Advertisements
Track Severe Weather on mobile